sensor_id;sensor_type;location;lat;lon;timestamp;P1;durP1;ratioP1;P2;durP2;ratioP2
71435;SDS011;59251;51.326;12.370;2023-07-31T00:01:36;7.70;;;1.55;;
71435;SDS011;59251;51.326;12.370;2023-07-31T00:04:03;9.37;;;1.40;;
71435;SDS011;59251;51.326;12.370;2023-07-31T00:06:29;6.85;;;1.30;;
71435;SDS011;59251;51.326;12.370;2023-07-31T00:08:57;6.90;;;1.30;;
71435;SDS011;59251;51.326;12.370;2023-07-31T00:11:24;7.25;;;1.15;;
71435;SDS011;59251;51.326;12.370;2023-07-31T00:13:52;5.45;;;1.38;;
71435;SDS011;59251;51.326;12.370;2023-07-31T00:16:19;5.97;;;1.30;;
71435;SDS011;59251;51.326;12.370;2023-07-31T00:18:45;8.35;;;1.50;;
71435;SDS011;59251;51.326;12.370;2023-07-31T00:21:12;8.35;;;1.60;;
71435;SDS011;59251;51.326;12.370;2023-07-31T00:23:39;8.05;;;1.95;;
71435;SDS011;59251;51.326;12.370;2023-07-31T00:26:07;8.82;;;1.70;;
71435;SDS011;59251;51.326;12.370;2023-07-31T00:28:33;9.10;;;1.40;;
71435;SDS011;59251;51.326;12.370;2023-07-31T00:31:00;7.43;;;1.60;;
71435;SDS011;59251;51.326;12.370;2023-07-31T00:33:29;5.90;;;1.50;;
71435;SDS011;59251;51.326;12.370;2023-07-31T00:35:57;7.43;;;1.45;;
71435;SDS011;59251;51.326;12.370;2023-07-31T00:38:25;8.30;;;1.60;;
71435;SDS011;59251;51.326;12.370;2023-07-31T00:40:51;5.63;;;1.30;;
71435;SDS011;59251;51.326;12.370;2023-07-31T00:43:20;6.45;;;1.55;;
71435;SDS011;59251;51.326;12.370;2023-07-31T00:45:47;6.43;;;1.60;;
71435;SDS011;59251;51.326;12.370;2023-07-31T00:48:13;5.93;;;1.40;;
71435;SDS011;59251;51.326;12.370;2023-07-31T00:50:40;8.07;;;1.75;;
71435;SDS011;59251;51.326;12.370;2023-07-31T00:53:07;7.73;;;2.00;;
71435;SDS011;59251;51.326;12.370;2023-07-31T00:55:34;11.52;;;1.40;;
71435;SDS011;59251;51.326;12.370;2023-07-31T00:58:01;8.02;;;1.48;;
71435;SDS011;59251;51.326;12.370;2023-07-31T01:00:29;8.05;;;1.58;;
71435;SDS011;59251;51.326;12.370;2023-07-31T01:02:55;8.60;;;1.40;;
71435;SDS011;59251;51.326;12.370;2023-07-31T01:05:23;6.60;;;1.33;;
71435;SDS011;59251;51.326;12.370;2023-07-31T01:07:56;5.45;;;1.10;;
71435;SDS011;59251;51.326;12.370;2023-07-31T01:10:30;5.13;;;1.00;;
71435;SDS011;59251;51.326;12.370;2023-07-31T01:13:03;8.25;;;1.58;;
71435;SDS011;59251;51.326;12.370;2023-07-31T01:15:31;7.20;;;1.30;;
71435;SDS011;59251;51.326;12.370;2023-07-31T01:17:58;8.60;;;1.80;;
71435;SDS011;59251;51.326;12.370;2023-07-31T01:20:25;5.57;;;1.50;;
71435;SDS011;59251;51.326;12.370;2023-07-31T01:23:13;7.70;;;1.33;;
71435;SDS011;59251;51.326;12.370;2023-07-31T01:26:04;6.80;;;1.30;;
71435;SDS011;59251;51.326;12.370;2023-07-31T01:28:39;8.95;;;1.60;;
71435;SDS011;59251;51.326;12.370;2023-07-31T01:31:13;6.90;;;1.50;;
71435;SDS011;59251;51.326;12.370;2023-07-31T01:33:42;7.90;;;1.67;;
71435;SDS011;59251;51.326;12.370;2023-07-31T01:36:10;9.18;;;1.55;;
71435;SDS011;59251;51.326;12.370;2023-07-31T01:38:38;7.38;;;1.50;;
71435;SDS011;59251;51.326;12.370;2023-07-31T01:41:06;5.15;;;1.10;;
71435;SDS011;59251;51.326;12.370;2023-07-31T01:43:33;6.43;;;1.30;;
71435;SDS011;59251;51.326;12.370;2023-07-31T01:46:00;7.38;;;1.40;;
71435;SDS011;59251;51.326;12.370;2023-07-31T01:48:26;7.10;;;1.40;;
71435;SDS011;59251;51.326;12.370;2023-07-31T01:50:53;8.15;;;1.55;;
71435;SDS011;59251;51.326;12.370;2023-07-31T01:53:20;7.32;;;1.15;;
71435;SDS011;59251;51.326;12.370;2023-07-31T01:55:46;7.73;;;1.83;;
71435;SDS011;59251;51.326;12.370;2023-07-31T01:58:14;7.15;;;1.65;;
71435;SDS011;59251;51.326;12.370;2023-07-31T02:00:41;8.50;;;1.92;;
71435;SDS011;59251;51.326;12.370;2023-07-31T02:03:08;7.65;;;1.35;;
71435;SDS011;59251;51.326;12.370;2023-07-31T02:05:34;7.70;;;1.75;;
71435;SDS011;59251;51.326;12.370;2023-07-31T02:08:01;9.27;;;1.43;;
71435;SDS011;59251;51.326;12.370;2023-07-31T02:10:28;6.70;;;1.40;;
71435;SDS011;59251;51.326;12.370;2023-07-31T02:12:55;6.72;;;1.40;;
71435;SDS011;59251;51.326;12.370;2023-07-31T02:15:24;6.43;;;1.30;;
71435;SDS011;59251;51.326;12.370;2023-07-31T02:17:51;7.28;;;1.52;;
71435;SDS011;59251;51.326;12.370;2023-07-31T02:20:17;6.50;;;1.33;;
71435;SDS011;59251;51.326;12.370;2023-07-31T02:22:45;7.78;;;1.95;;
71435;SDS011;59251;51.326;12.370;2023-07-31T02:25:11;7.38;;;1.40;;
71435;SDS011;59251;51.326;12.370;2023-07-31T02:27:38;6.63;;;1.60;;
71435;SDS011;59251;51.326;12.370;2023-07-31T02:30:05;9.25;;;1.80;;
71435;SDS011;59251;51.326;12.370;2023-07-31T02:32:34;7.40;;;1.40;;
71435;SDS011;59251;51.326;12.370;2023-07-31T02:35:01;6.82;;;1.60;;
71435;SDS011;59251;51.326;12.370;2023-07-31T02:37:28;7.90;;;1.50;;
71435;SDS011;59251;51.326;12.370;2023-07-31T02:39:55;8.50;;;1.40;;
71435;SDS011;59251;51.326;12.370;2023-07-31T02:42:22;5.93;;;1.10;;
71435;SDS011;59251;51.326;12.370;2023-07-31T02:44:48;5.40;;;1.10;;
71435;SDS011;59251;51.326;12.370;2023-07-31T02:47:20;8.68;;;1.50;;
71435;SDS011;59251;51.326;12.370;2023-07-31T02:49:48;7.70;;;1.60;;
71435;SDS011;59251;51.326;12.370;2023-07-31T02:52:16;7.25;;;1.40;;
71435;SDS011;59251;51.326;12.370;2023-07-31T02:54:43;7.65;;;1.30;;
71435;SDS011;59251;51.326;12.370;2023-07-31T02:57:09;6.77;;;1.37;;
71435;SDS011;59251;51.326;12.370;2023-07-31T02:59:36;10.63;;;1.63;;
71435;SDS011;59251;51.326;12.370;2023-07-31T03:02:03;8.52;;;1.33;;
71435;SDS011;59251;51.326;12.370;2023-07-31T03:04:30;5.35;;;1.20;;
71435;SDS011;59251;51.326;12.370;2023-07-31T03:06:58;6.55;;;1.40;;
71435;SDS011;59251;51.326;12.370;2023-07-31T03:09:25;6.40;;;1.63;;
71435;SDS011;59251;51.326;12.370;2023-07-31T03:11:53;8.25;;;1.33;;
71435;SDS011;59251;51.326;12.370;2023-07-31T03:14:19;9.93;;;1.42;;
71435;SDS011;59251;51.326;12.370;2023-07-31T03:16:46;6.30;;;1.45;;
71435;SDS011;59251;51.326;12.370;2023-07-31T03:19:13;7.65;;;1.52;;
71435;SDS011;59251;51.326;12.370;2023-07-31T03:21:39;7.30;;;1.40;;
71435;SDS011;59251;51.326;12.370;2023-07-31T03:24:08;8.27;;;2.10;;
71435;SDS011;59251;51.326;12.370;2023-07-31T03:26:34;7.00;;;1.77;;
71435;SDS011;59251;51.326;12.370;2023-07-31T03:29:01;8.18;;;1.92;;
71435;SDS011;59251;51.326;12.370;2023-07-31T03:31:28;6.57;;;1.60;;
71435;SDS011;59251;51.326;12.370;2023-07-31T03:33:55;8.97;;;1.30;;
71435;SDS011;59251;51.326;12.370;2023-07-31T03:36:21;6.55;;;1.55;;
71435;SDS011;59251;51.326;12.370;2023-07-31T03:38:48;8.32;;;1.70;;
71435;SDS011;59251;51.326;12.370;2023-07-31T03:41:16;6.80;;;1.67;;
71435;SDS011;59251;51.326;12.370;2023-07-31T03:43:45;8.07;;;1.45;;
71435;SDS011;59251;51.326;12.370;2023-07-31T03:46:12;9.03;;;1.83;;
71435;SDS011;59251;51.326;12.370;2023-07-31T03:48:39;8.05;;;1.42;;
71435;SDS011;59251;51.326;12.370;2023-07-31T03:51:06;8.95;;;1.83;;
71435;SDS011;59251;51.326;12.370;2023-07-31T03:53:32;5.90;;;1.70;;
71435;SDS011;59251;51.326;12.370;2023-07-31T03:55:59;7.38;;;1.70;;
71435;SDS011;59251;51.326;12.370;2023-07-31T03:58:27;7.93;;;1.67;;
71435;SDS011;59251;51.326;12.370;2023-07-31T04:00:54;9.02;;;1.45;;
71435;SDS011;59251;51.326;12.370;2023-07-31T04:03:20;7.78;;;1.60;;
71435;SDS011;59251;51.326;12.370;2023-07-31T04:05:47;8.10;;;1.50;;
71435;SDS011;59251;51.326;12.370;2023-07-31T04:08:14;6.53;;;1.55;;
71435;SDS011;59251;51.326;12.370;2023-07-31T04:10:40;7.33;;;1.40;;
71435;SDS011;59251;51.326;12.370;2023-07-31T04:13:07;7.65;;;1.50;;
71435;SDS011;59251;51.326;12.370;2023-07-31T04:15:35;7.43;;;1.80;;
71435;SDS011;59251;51.326;12.370;2023-07-31T04:18:02;7.57;;;1.83;;
71435;SDS011;59251;51.326;12.370;2023-07-31T04:20:28;7.18;;;1.50;;
71435;SDS011;59251;51.326;12.370;2023-07-31T04:22:55;7.10;;;1.80;;
71435;SDS011;59251;51.326;12.370;2023-07-31T04:25:22;8.43;;;1.67;;
71435;SDS011;59251;51.326;12.370;2023-07-31T04:27:48;6.95;;;1.73;;
71435;SDS011;59251;51.326;12.370;2023-07-31T04:30:15;7.65;;;1.67;;
71435;SDS011;59251;51.326;12.370;2023-07-31T04:32:43;7.63;;;1.80;;
71435;SDS011;59251;51.326;12.370;2023-07-31T04:35:10;6.03;;;1.60;;
71435;SDS011;59251;51.326;12.370;2023-07-31T04:37:36;10.27;;;1.90;;
71435;SDS011;59251;51.326;12.370;2023-07-31T04:40:04;8.25;;;2.10;;
71435;SDS011;59251;51.326;12.370;2023-07-31T04:42:31;7.07;;;1.83;;
71435;SDS011;59251;51.326;12.370;2023-07-31T04:44:59;9.57;;;1.92;;
71435;SDS011;59251;51.326;12.370;2023-07-31T04:47:26;8.80;;;1.80;;
71435;SDS011;59251;51.326;12.370;2023-07-31T04:49:54;9.23;;;1.65;;
71435;SDS011;59251;51.326;12.370;2023-07-31T04:52:21;9.15;;;1.95;;
71435;SDS011;59251;51.326;12.370;2023-07-31T04:54:47;9.25;;;2.03;;
71435;SDS011;59251;51.326;12.370;2023-07-31T04:57:14;7.18;;;2.15;;
71435;SDS011;59251;51.326;12.370;2023-07-31T04:59:40;7.13;;;1.97;;
71435;SDS011;59251;51.326;12.370;2023-07-31T05:02:08;7.25;;;2.10;;
71435;SDS011;59251;51.326;12.370;2023-07-31T05:04:35;8.05;;;1.83;;
71435;SDS011;59251;51.326;12.370;2023-07-31T05:07:03;7.55;;;2.10;;
71435;SDS011;59251;51.326;12.370;2023-07-31T05:09:30;9.30;;;2.58;;
71435;SDS011;59251;51.326;12.370;2023-07-31T05:11:57;7.00;;;1.83;;
71435;SDS011;59251;51.326;12.370;2023-07-31T05:14:23;7.22;;;2.00;;
71435;SDS011;59251;51.326;12.370;2023-07-31T05:16:50;7.65;;;2.22;;
71435;SDS011;59251;51.326;12.370;2023-07-31T05:19:17;6.43;;;2.00;;
71435;SDS011;59251;51.326;12.370;2023-07-31T05:21:44;8.85;;;2.10;;
71435;SDS011;59251;51.326;12.370;2023-07-31T05:24:12;9.13;;;2.30;;
71435;SDS011;59251;51.326;12.370;2023-07-31T05:26:38;12.65;;;3.40;;
71435;SDS011;59251;51.326;12.370;2023-07-31T05:29:05;9.10;;;2.53;;
71435;SDS011;59251;51.326;12.370;2023-07-31T05:31:32;8.82;;;2.10;;
71435;SDS011;59251;51.326;12.370;2023-07-31T05:33:58;8.80;;;2.70;;
71435;SDS011;59251;51.326;12.370;2023-07-31T05:36:25;7.60;;;2.00;;
71435;SDS011;59251;51.326;12.370;2023-07-31T05:38:51;10.63;;;2.70;;
71435;SDS011;59251;51.326;12.370;2023-07-31T05:41:20;8.80;;;2.03;;
71435;SDS011;59251;51.326;12.370;2023-07-31T05:43:46;10.23;;;3.13;;
71435;SDS011;59251;51.326;12.370;2023-07-31T05:46:13;8.82;;;1.92;;
71435;SDS011;59251;51.326;12.370;2023-07-31T05:48:40;9.03;;;2.00;;
71435;SDS011;59251;51.326;12.370;2023-07-31T05:51:06;9.43;;;2.13;;
71435;SDS011;59251;51.326;12.370;2023-07-31T05:53:33;8.15;;;2.70;;
71435;SDS011;59251;51.326;12.370;2023-07-31T05:56:01;9.75;;;2.60;;
71435;SDS011;59251;51.326;12.370;2023-07-31T05:58:29;12.10;;;2.33;;
71435;SDS011;59251;51.326;12.370;2023-07-31T06:00:55;9.40;;;2.20;;
71435;SDS011;59251;51.326;12.370;2023-07-31T06:03:22;9.10;;;1.90;;
71435;SDS011;59251;51.326;12.370;2023-07-31T06:05:49;9.82;;;2.35;;
71435;SDS011;59251;51.326;12.370;2023-07-31T06:08:16;8.20;;;2.10;;
71435;SDS011;59251;51.326;12.370;2023-07-31T06:10:42;7.22;;;2.03;;
71435;SDS011;59251;51.326;12.370;2023-07-31T06:13:09;8.33;;;2.23;;
71435;SDS011;59251;51.326;12.370;2023-07-31T06:15:37;7.78;;;2.00;;
71435;SDS011;59251;51.326;12.370;2023-07-31T06:18:04;9.43;;;2.33;;
71435;SDS011;59251;51.326;12.370;2023-07-31T06:20:32;10.98;;;3.00;;
71435;SDS011;59251;51.326;12.370;2023-07-31T06:22:59;9.07;;;2.15;;
71435;SDS011;59251;51.326;12.370;2023-07-31T06:25:26;8.40;;;2.30;;
71435;SDS011;59251;51.326;12.370;2023-07-31T06:27:53;8.18;;;1.95;;
71435;SDS011;59251;51.326;12.370;2023-07-31T06:30:19;7.22;;;2.08;;
71435;SDS011;59251;51.326;12.370;2023-07-31T06:32:47;10.20;;;2.17;;
71435;SDS011;59251;51.326;12.370;2023-07-31T06:35:14;7.47;;;2.00;;
71435;SDS011;59251;51.326;12.370;2023-07-31T06:37:41;6.47;;;1.80;;
71435;SDS011;59251;51.326;12.370;2023-07-31T06:40:09;10.50;;;2.58;;
71435;SDS011;59251;51.326;12.370;2023-07-31T06:42:36;10.70;;;1.92;;
71435;SDS011;59251;51.326;12.370;2023-07-31T06:45:03;7.57;;;2.20;;
71435;SDS011;59251;51.326;12.370;2023-07-31T06:47:31;9.05;;;2.00;;
71435;SDS011;59251;51.326;12.370;2023-07-31T06:49:59;8.80;;;2.00;;
71435;SDS011;59251;51.326;12.370;2023-07-31T06:52:26;8.48;;;2.45;;
71435;SDS011;59251;51.326;12.370;2023-07-31T06:55:00;12.32;;;2.08;;
71435;SDS011;59251;51.326;12.370;2023-07-31T06:57:28;7.28;;;2.03;;
71435;SDS011;59251;51.326;12.370;2023-07-31T06:59:55;8.27;;;2.00;;
71435;SDS011;59251;51.326;12.370;2023-07-31T07:02:22;8.53;;;2.03;;
71435;SDS011;59251;51.326;12.370;2023-07-31T07:04:49;6.72;;;1.98;;
71435;SDS011;59251;51.326;12.370;2023-07-31T07:07:18;7.47;;;2.17;;
71435;SDS011;59251;51.326;12.370;2023-07-31T07:09:44;6.82;;;2.00;;
71435;SDS011;59251;51.326;12.370;2023-07-31T07:12:11;8.50;;;2.30;;
71435;SDS011;59251;51.326;12.370;2023-07-31T07:14:37;7.13;;;2.00;;
71435;SDS011;59251;51.326;12.370;2023-07-31T07:17:04;8.23;;;2.00;;
71435;SDS011;59251;51.326;12.370;2023-07-31T07:19:31;6.95;;;1.80;;
71435;SDS011;59251;51.326;12.370;2023-07-31T07:21:58;8.43;;;1.60;;
71435;SDS011;59251;51.326;12.370;2023-07-31T07:24:28;7.35;;;2.00;;
71435;SDS011;59251;51.326;12.370;2023-07-31T07:26:55;8.43;;;2.00;;
71435;SDS011;59251;51.326;12.370;2023-07-31T07:29:21;8.27;;;2.10;;
71435;SDS011;59251;51.326;12.370;2023-07-31T07:31:50;6.22;;;1.70;;
71435;SDS011;59251;51.326;12.370;2023-07-31T07:34:17;7.22;;;1.77;;
71435;SDS011;59251;51.326;12.370;2023-07-31T07:36:44;5.85;;;1.75;;
71435;SDS011;59251;51.326;12.370;2023-07-31T07:39:11;6.77;;;1.70;;
71435;SDS011;59251;51.326;12.370;2023-07-31T07:41:39;8.40;;;2.30;;
71435;SDS011;59251;51.326;12.370;2023-07-31T07:44:05;6.85;;;1.90;;
71435;SDS011;59251;51.326;12.370;2023-07-31T07:46:32;7.00;;;1.77;;
71435;SDS011;59251;51.326;12.370;2023-07-31T07:48:59;6.70;;;1.88;;
71435;SDS011;59251;51.326;12.370;2023-07-31T07:51:26;10.37;;;1.90;;
71435;SDS011;59251;51.326;12.370;2023-07-31T07:53:55;7.88;;;1.77;;
71435;SDS011;59251;51.326;12.370;2023-07-31T07:56:21;7.80;;;2.20;;
71435;SDS011;59251;51.326;12.370;2023-07-31T07:58:50;8.30;;;1.90;;
71435;SDS011;59251;51.326;12.370;2023-07-31T08:01:17;6.53;;;2.03;;
71435;SDS011;59251;51.326;12.370;2023-07-31T08:03:44;9.63;;;2.10;;
71435;SDS011;59251;51.326;12.370;2023-07-31T08:06:10;8.38;;;2.10;;
71435;SDS011;59251;51.326;12.370;2023-07-31T08:08:37;10.40;;;1.90;;
71435;SDS011;59251;51.326;12.370;2023-07-31T08:11:04;9.45;;;2.00;;
71435;SDS011;59251;51.326;12.370;2023-07-31T08:13:31;8.30;;;1.90;;
71435;SDS011;59251;51.326;12.370;2023-07-31T08:15:59;7.43;;;1.73;;
71435;SDS011;59251;51.326;12.370;2023-07-31T08:18:26;9.32;;;1.85;;
71435;SDS011;59251;51.326;12.370;2023-07-31T08:20:53;5.72;;;1.65;;
71435;SDS011;59251;51.326;12.370;2023-07-31T08:23:19;6.03;;;1.70;;
71435;SDS011;59251;51.326;12.370;2023-07-31T08:25:46;9.18;;;2.30;;
71435;SDS011;59251;51.326;12.370;2023-07-31T08:28:14;9.37;;;2.10;;
71435;SDS011;59251;51.326;12.370;2023-07-31T08:30:41;8.55;;;2.20;;
71435;SDS011;59251;51.326;12.370;2023-07-31T08:33:09;8.45;;;2.15;;
71435;SDS011;59251;51.326;12.370;2023-07-31T08:35:36;7.10;;;1.77;;
71435;SDS011;59251;51.326;12.370;2023-07-31T08:38:03;5.55;;;1.75;;
71435;SDS011;59251;51.326;12.370;2023-07-31T08:40:29;9.40;;;2.10;;
71435;SDS011;59251;51.326;12.370;2023-07-31T08:42:56;7.25;;;1.90;;
71435;SDS011;59251;51.326;12.370;2023-07-31T08:45:27;7.72;;;1.73;;
71435;SDS011;59251;51.326;12.370;2023-07-31T08:47:54;8.40;;;1.95;;
71435;SDS011;59251;51.326;12.370;2023-07-31T08:50:23;6.32;;;1.60;;
71435;SDS011;59251;51.326;12.370;2023-07-31T08:52:51;7.50;;;1.60;;
71435;SDS011;59251;51.326;12.370;2023-07-31T08:55:18;6.88;;;1.70;;
71435;SDS011;59251;51.326;12.370;2023-07-31T08:57:48;6.07;;;1.80;;
71435;SDS011;59251;51.326;12.370;2023-07-31T09:00:17;6.32;;;2.00;;
71435;SDS011;59251;51.326;12.370;2023-07-31T09:02:46;6.78;;;2.00;;
71435;SDS011;59251;51.326;12.370;2023-07-31T09:05:17;7.23;;;1.80;;
71435;SDS011;59251;51.326;12.370;2023-07-31T09:07:47;6.00;;;1.60;;
71435;SDS011;59251;51.326;12.370;2023-07-31T09:10:14;8.18;;;1.92;;
71435;SDS011;59251;51.326;12.370;2023-07-31T09:12:41;7.40;;;1.63;;
71435;SDS011;59251;51.326;12.370;2023-07-31T09:15:09;11.73;;;2.00;;
71435;SDS011;59251;51.326;12.370;2023-07-31T09:17:37;7.23;;;1.90;;
71435;SDS011;59251;51.326;12.370;2023-07-31T09:20:13;8.57;;;2.08;;
71435;SDS011;59251;51.326;12.370;2023-07-31T09:22:41;6.80;;;2.00;;
71435;SDS011;59251;51.326;12.370;2023-07-31T09:25:16;10.30;;;2.30;;
71435;SDS011;59251;51.326;12.370;2023-07-31T09:27:48;7.45;;;2.25;;
71435;SDS011;59251;51.326;12.370;2023-07-31T09:30:16;5.80;;;1.80;;
71435;SDS011;59251;51.326;12.370;2023-07-31T09:32:43;9.15;;;1.45;;
71435;SDS011;59251;51.326;12.370;2023-07-31T09:35:13;8.13;;;2.17;;
71435;SDS011;59251;51.326;12.370;2023-07-31T09:37:48;7.60;;;2.05;;
71435;SDS011;59251;51.326;12.370;2023-07-31T09:40:25;10.55;;;2.70;;
71435;SDS011;59251;51.326;12.370;2023-07-31T09:42:53;9.60;;;2.27;;
71435;SDS011;59251;51.326;12.370;2023-07-31T09:45:22;8.90;;;2.60;;
71435;SDS011;59251;51.326;12.370;2023-07-31T09:47:49;8.18;;;2.03;;
71435;SDS011;59251;51.326;12.370;2023-07-31T09:50:16;9.20;;;2.50;;
71435;SDS011;59251;51.326;12.370;2023-07-31T09:52:43;8.35;;;2.10;;
71435;SDS011;59251;51.326;12.370;2023-07-31T09:55:10;8.93;;;1.80;;
71435;SDS011;59251;51.326;12.370;2023-07-31T09:57:39;9.25;;;2.30;;
71435;SDS011;59251;51.326;12.370;2023-07-31T10:00:08;8.32;;;2.42;;
71435;SDS011;59251;51.326;12.370;2023-07-31T10:02:40;6.18;;;1.77;;
71435;SDS011;59251;51.326;12.370;2023-07-31T10:05:07;7.07;;;2.10;;
71435;SDS011;59251;51.326;12.370;2023-07-31T10:07:36;7.13;;;1.83;;
71435;SDS011;59251;51.326;12.370;2023-07-31T10:10:04;8.05;;;2.40;;
71435;SDS011;59251;51.326;12.370;2023-07-31T10:12:33;10.32;;;2.40;;
71435;SDS011;59251;51.326;12.370;2023-07-31T10:15:03;10.40;;;2.40;;
71435;SDS011;59251;51.326;12.370;2023-07-31T10:17:31;6.28;;;1.90;;
71435;SDS011;59251;51.326;12.370;2023-07-31T10:19:58;8.73;;;2.73;;
71435;SDS011;59251;51.326;12.370;2023-07-31T10:22:26;7.00;;;2.08;;
71435;SDS011;59251;51.326;12.370;2023-07-31T10:24:54;7.50;;;2.05;;
71435;SDS011;59251;51.326;12.370;2023-07-31T10:27:23;7.07;;;1.77;;
71435;SDS011;59251;51.326;12.370;2023-07-31T10:29:50;6.50;;;1.67;;
71435;SDS011;59251;51.326;12.370;2023-07-31T10:32:20;8.57;;;1.80;;
71435;SDS011;59251;51.326;12.370;2023-07-31T10:34:48;6.53;;;1.70;;
71435;SDS011;59251;51.326;12.370;2023-07-31T10:37:19;6.20;;;2.30;;
71435;SDS011;59251;51.326;12.370;2023-07-31T10:39:57;7.15;;;1.92;;
71435;SDS011;59251;51.326;12.370;2023-07-31T10:42:27;6.20;;;1.85;;
71435;SDS011;59251;51.326;12.370;2023-07-31T10:44:56;7.33;;;1.97;;
71435;SDS011;59251;51.326;12.370;2023-07-31T10:47:26;8.40;;;2.22;;
71435;SDS011;59251;51.326;12.370;2023-07-31T10:49:53;8.57;;;2.40;;
71435;SDS011;59251;51.326;12.370;2023-07-31T10:52:38;6.50;;;2.20;;
71435;SDS011;59251;51.326;12.370;2023-07-31T10:55:15;7.38;;;2.40;;
71435;SDS011;59251;51.326;12.370;2023-07-31T10:57:44;6.27;;;1.57;;
71435;SDS011;59251;51.326;12.370;2023-07-31T11:00:20;6.53;;;2.25;;
71435;SDS011;59251;51.326;12.370;2023-07-31T11:03:00;8.63;;;1.95;;
71435;SDS011;59251;51.326;12.370;2023-07-31T11:05:41;7.68;;;2.40;;
71435;SDS011;59251;51.326;12.370;2023-07-31T11:08:12;7.25;;;1.88;;
71435;SDS011;59251;51.326;12.370;2023-07-31T11:10:40;7.00;;;1.80;;
71435;SDS011;59251;51.326;12.370;2023-07-31T11:13:07;8.13;;;2.15;;
71435;SDS011;59251;51.326;12.370;2023-07-31T11:15:33;8.80;;;2.30;;
71435;SDS011;59251;51.326;12.370;2023-07-31T11:18:02;6.70;;;1.77;;
71435;SDS011;59251;51.326;12.370;2023-07-31T11:20:30;7.93;;;2.20;;
71435;SDS011;59251;51.326;12.370;2023-07-31T11:22:58;7.43;;;2.17;;
71435;SDS011;59251;51.326;12.370;2023-07-31T11:25:26;6.45;;;2.10;;
71435;SDS011;59251;51.326;12.370;2023-07-31T11:27:55;8.73;;;2.28;;
71435;SDS011;59251;51.326;12.370;2023-07-31T11:30:22;6.82;;;1.95;;
71435;SDS011;59251;51.326;12.370;2023-07-31T11:32:49;7.55;;;2.20;;
71435;SDS011;59251;51.326;12.370;2023-07-31T11:35:17;8.07;;;2.30;;
71435;SDS011;59251;51.326;12.370;2023-07-31T11:37:44;7.38;;;2.20;;
71435;SDS011;59251;51.326;12.370;2023-07-31T11:40:11;7.07;;;2.13;;
71435;SDS011;59251;51.326;12.370;2023-07-31T11:42:38;8.85;;;1.98;;
71435;SDS011;59251;51.326;12.370;2023-07-31T11:45:05;8.05;;;2.25;;
71435;SDS011;59251;51.326;12.370;2023-07-31T11:47:33;7.03;;;1.90;;
71435;SDS011;59251;51.326;12.370;2023-07-31T11:50:01;6.88;;;2.10;;
71435;SDS011;59251;51.326;12.370;2023-07-31T11:52:30;7.43;;;2.58;;
71435;SDS011;59251;51.326;12.370;2023-07-31T11:54:59;6.90;;;2.10;;
71435;SDS011;59251;51.326;12.370;2023-07-31T11:57:26;8.77;;;2.38;;
71435;SDS011;59251;51.326;12.370;2023-07-31T11:59:54;6.20;;;2.00;;
71435;SDS011;59251;51.326;12.370;2023-07-31T12:02:22;8.55;;;2.00;;
71435;SDS011;59251;51.326;12.370;2023-07-31T12:04:49;6.45;;;2.10;;
71435;SDS011;59251;51.326;12.370;2023-07-31T12:07:16;8.27;;;2.53;;
71435;SDS011;59251;51.326;12.370;2023-07-31T12:09:51;7.88;;;2.58;;
71435;SDS011;59251;51.326;12.370;2023-07-31T12:12:20;7.73;;;2.10;;
71435;SDS011;59251;51.326;12.370;2023-07-31T12:14:47;7.38;;;2.47;;
71435;SDS011;59251;51.326;12.370;2023-07-31T12:17:16;8.77;;;2.47;;
71435;SDS011;59251;51.326;12.370;2023-07-31T12:19:43;7.13;;;2.05;;
71435;SDS011;59251;51.326;12.370;2023-07-31T12:22:11;9.85;;;2.67;;
71435;SDS011;59251;51.326;12.370;2023-07-31T12:24:38;7.93;;;2.30;;
71435;SDS011;59251;51.326;12.370;2023-07-31T12:27:09;8.05;;;2.53;;
71435;SDS011;59251;51.326;12.370;2023-07-31T12:29:37;7.03;;;2.45;;
71435;SDS011;59251;51.326;12.370;2023-07-31T12:32:04;8.27;;;2.60;;
71435;SDS011;59251;51.326;12.370;2023-07-31T12:34:44;6.97;;;2.22;;
71435;SDS011;59251;51.326;12.370;2023-07-31T12:37:10;8.87;;;2.30;;
71435;SDS011;59251;51.326;12.370;2023-07-31T12:39:37;7.50;;;2.10;;
71435;SDS011;59251;51.326;12.370;2023-07-31T12:42:04;6.88;;;2.25;;
71435;SDS011;59251;51.326;12.370;2023-07-31T12:44:33;7.07;;;2.58;;
71435;SDS011;59251;51.326;12.370;2023-07-31T12:46:59;7.00;;;2.20;;
71435;SDS011;59251;51.326;12.370;2023-07-31T12:49:26;8.17;;;2.20;;
71435;SDS011;59251;51.326;12.370;2023-07-31T12:51:53;7.95;;;2.65;;
71435;SDS011;59251;51.326;12.370;2023-07-31T12:54:20;8.68;;;2.15;;
71435;SDS011;59251;51.326;12.370;2023-07-31T12:56:46;9.23;;;2.35;;
71435;SDS011;59251;51.326;12.370;2023-07-31T12:59:13;8.15;;;2.33;;
71435;SDS011;59251;51.326;12.370;2023-07-31T13:01:41;8.60;;;2.83;;
71435;SDS011;59251;51.326;12.370;2023-07-31T13:04:08;8.88;;;2.40;;
71435;SDS011;59251;51.326;12.370;2023-07-31T13:06:35;8.43;;;3.17;;
71435;SDS011;59251;51.326;12.370;2023-07-31T13:09:02;7.55;;;2.60;;
71435;SDS011;59251;51.326;12.370;2023-07-31T13:11:29;8.18;;;2.80;;
71435;SDS011;59251;51.326;12.370;2023-07-31T13:13:56;7.87;;;2.77;;
71435;SDS011;59251;51.326;12.370;2023-07-31T13:16:22;6.90;;;2.60;;
71435;SDS011;59251;51.326;12.370;2023-07-31T13:18:50;7.18;;;2.42;;
71435;SDS011;59251;51.326;12.370;2023-07-31T13:21:18;7.65;;;2.28;;
71435;SDS011;59251;51.326;12.370;2023-07-31T13:23:46;7.28;;;2.53;;
71435;SDS011;59251;51.326;12.370;2023-07-31T13:26:13;6.30;;;1.97;;
71435;SDS011;59251;51.326;12.370;2023-07-31T13:28:40;8.48;;;1.90;;
71435;SDS011;59251;51.326;12.370;2023-07-31T13:31:06;8.05;;;2.42;;
71435;SDS011;59251;51.326;12.370;2023-07-31T13:33:33;6.40;;;2.20;;
71435;SDS011;59251;51.326;12.370;2023-07-31T13:36:01;6.13;;;1.90;;
71435;SDS011;59251;51.326;12.370;2023-07-31T13:38:28;8.93;;;2.43;;
71435;SDS011;59251;51.326;12.370;2023-07-31T13:40:55;6.75;;;2.38;;
71435;SDS011;59251;51.326;12.370;2023-07-31T13:43:21;13.73;;;2.60;;
71435;SDS011;59251;51.326;12.370;2023-07-31T13:45:48;8.02;;;3.45;;
71435;SDS011;59251;51.326;12.370;2023-07-31T13:48:15;7.13;;;2.00;;
71435;SDS011;59251;51.326;12.370;2023-07-31T13:50:41;6.43;;;1.77;;
71435;SDS011;59251;51.326;12.370;2023-07-31T13:53:09;7.63;;;2.30;;
71435;SDS011;59251;51.326;12.370;2023-07-31T13:55:36;7.93;;;2.20;;
71435;SDS011;59251;51.326;12.370;2023-07-31T13:58:03;6.63;;;2.08;;
71435;SDS011;59251;51.326;12.370;2023-07-31T14:00:30;5.82;;;1.60;;
71435;SDS011;59251;51.326;12.370;2023-07-31T14:02:56;6.40;;;2.00;;
71435;SDS011;59251;51.326;12.370;2023-07-31T14:05:23;7.05;;;1.70;;
71435;SDS011;59251;51.326;12.370;2023-07-31T14:07:50;6.72;;;2.05;;
71435;SDS011;59251;51.326;12.370;2023-07-31T14:10:18;8.18;;;2.30;;
71435;SDS011;59251;51.326;12.370;2023-07-31T14:12:45;6.85;;;1.70;;
71435;SDS011;59251;51.326;12.370;2023-07-31T14:15:11;7.37;;;1.90;;
71435;SDS011;59251;51.326;12.370;2023-07-31T14:17:38;7.88;;;2.10;;
71435;SDS011;59251;51.326;12.370;2023-07-31T14:20:06;6.90;;;1.70;;
71435;SDS011;59251;51.326;12.370;2023-07-31T14:22:33;7.13;;;1.65;;
71435;SDS011;59251;51.326;12.370;2023-07-31T14:25:00;6.32;;;1.80;;
71435;SDS011;59251;51.326;12.370;2023-07-31T14:27:29;6.10;;;1.67;;
71435;SDS011;59251;51.326;12.370;2023-07-31T14:29:56;6.50;;;1.88;;
71435;SDS011;59251;51.326;12.370;2023-07-31T14:32:22;6.80;;;1.90;;
71435;SDS011;59251;51.326;12.370;2023-07-31T14:34:50;7.85;;;1.88;;
71435;SDS011;59251;51.326;12.370;2023-07-31T14:37:17;7.88;;;2.00;;